createdAt,value
2022-11-16T00:00:01.000Z,95362
2022-11-16T00:05:01.000Z,95374
2022-11-16T00:10:01.000Z,95358
2022-11-16T00:15:01.000Z,95359
2022-11-16T00:20:01.000Z,95380
2022-11-16T00:25:01.000Z,95359
2022-11-16T00:30:01.000Z,95363
2022-11-16T00:35:01.000Z,95370
2022-11-16T00:40:01.000Z,95374
2022-11-16T00:45:01.000Z,95381
2022-11-16T00:50:01.000Z,95381
2022-11-16T00:55:01.000Z,95407
2022-11-16T01:00:01.000Z,95419
2022-11-16T01:05:01.000Z,95436
2022-11-16T01:10:01.000Z,95433
2022-11-16T01:15:01.000Z,95425
2022-11-16T01:20:01.000Z,95428
2022-11-16T01:25:01.000Z,95425
2022-11-16T01:30:01.000Z,95436
2022-11-16T01:35:01.000Z,95438
2022-11-16T01:40:01.000Z,95439
2022-11-16T01:45:01.000Z,95431
2022-11-16T01:50:01.000Z,95419
2022-11-16T01:55:01.000Z,95442
2022-11-16T02:00:01.000Z,95426
2022-11-16T02:05:01.000Z,95443
2022-11-16T02:10:01.000Z,95440
2022-11-16T02:15:01.000Z,95435
2022-11-16T02:20:01.000Z,95427
2022-11-16T02:25:01.000Z,95432
2022-11-16T02:30:01.000Z,95438
2022-11-16T02:35:01.000Z,95425
2022-11-16T02:40:01.000Z,95442
2022-11-16T02:45:01.000Z,95438
2022-11-16T02:50:01.000Z,95434
2022-11-16T02:55:01.000Z,95426
2022-11-16T03:00:01.000Z,95426
2022-11-16T03:05:01.000Z,95417
2022-11-16T03:10:01.000Z,95425
2022-11-16T03:15:01.000Z,95419
2022-11-16T03:20:01.000Z,95429
2022-11-16T03:25:01.000Z,95424
2022-11-16T03:30:01.000Z,95421
2022-11-16T03:35:01.000Z,95410
2022-11-16T03:40:01.000Z,95401
2022-11-16T03:45:01.000Z,95399
2022-11-16T03:50:01.000Z,95398
2022-11-16T03:55:01.000Z,95404
2022-11-16T04:00:01.000Z,95403
2022-11-16T04:05:01.000Z,95394
2022-11-16T04:10:01.000Z,95402
2022-11-16T04:15:01.000Z,95395
2022-11-16T04:20:01.000Z,95390
2022-11-16T04:25:01.000Z,95383
2022-11-16T04:30:01.000Z,95373
2022-11-16T04:35:01.000Z,95384
2022-11-16T04:40:01.000Z,95386
2022-11-16T04:45:01.000Z,95389
2022-11-16T04:50:01.000Z,95385
2022-11-16T04:55:01.000Z,95375
2022-11-16T05:00:01.000Z,95386
2022-11-16T05:05:01.000Z,95387
2022-11-16T05:10:01.000Z,95390
2022-11-16T05:15:01.000Z,95380
2022-11-16T05:20:01.000Z,95393
2022-11-16T05:25:01.000Z,95392
2022-11-16T05:30:01.000Z,95385
2022-11-16T05:35:01.000Z,95390
2022-11-16T05:40:01.000Z,95394
2022-11-16T05:45:01.000Z,95389
2022-11-16T05:50:01.000Z,95382
2022-11-16T05:55:01.000Z,95371
2022-11-16T06:00:01.000Z,95379
2022-11-16T06:05:01.000Z,95376
2022-11-16T06:10:01.000Z,95367
2022-11-16T06:15:01.000Z,95378
2022-11-16T06:20:01.000Z,95380
2022-11-16T06:25:01.000Z,95384
2022-11-16T06:30:01.000Z,95389
2022-11-16T06:35:01.000Z,95383
2022-11-16T06:40:01.000Z,95384
2022-11-16T06:45:01.000Z,95377
2022-11-16T06:50:01.000Z,95376
2022-11-16T06:55:01.000Z,95385
2022-11-16T07:00:01.000Z,95386
2022-11-16T07:05:01.000Z,95394
2022-11-16T07:10:01.000Z,95407
2022-11-16T07:15:01.000Z,95420
2022-11-16T07:20:01.000Z,95430
2022-11-16T07:25:01.000Z,95421
2022-11-16T07:30:01.000Z,95429
2022-11-16T07:35:01.000Z,95436
2022-11-16T07:40:01.000Z,95427
2022-11-16T07:45:01.000Z,95429
2022-11-16T07:50:01.000Z,95430
2022-11-16T07:55:01.000Z,95445
2022-11-16T08:00:01.000Z,95441
2022-11-16T08:05:01.000Z,95429
2022-11-16T08:10:01.000Z,95433
2022-11-16T08:15:01.000Z,95439
2022-11-16T08:20:01.000Z,95443
2022-11-16T08:25:01.000Z,95442
2022-11-16T08:30:01.000Z,95437
2022-11-16T08:35:01.000Z,95436
2022-11-16T08:40:01.000Z,95432
2022-11-16T08:45:01.000Z,95437
2022-11-16T08:50:01.000Z,95436
2022-11-16T08:55:01.000Z,95437
2022-11-16T09:00:01.000Z,95434
2022-11-16T09:05:01.000Z,95445
2022-11-16T09:10:01.000Z,95445
2022-11-16T09:15:01.000Z,95442
2022-11-16T09:20:01.000Z,95438
2022-11-16T09:25:01.000Z,95438
2022-11-16T09:30:01.000Z,95436
2022-11-16T09:35:01.000Z,95432
2022-11-16T09:40:01.000Z,95444
2022-11-16T09:45:01.000Z,95445
2022-11-16T09:50:01.000Z,95446
2022-11-16T09:55:01.000Z,95438
2022-11-16T10:00:01.000Z,95441
2022-11-16T10:05:01.000Z,95437
2022-11-16T10:10:01.000Z,95423
2022-11-16T10:15:01.000Z,95432
2022-11-16T10:20:01.000Z,95434
2022-11-16T10:25:01.000Z,95420
2022-11-16T10:30:01.000Z,95417
2022-11-16T10:35:01.000Z,95417
2022-11-16T10:40:01.000Z,95400
2022-11-16T10:45:01.000Z,95406
2022-11-16T10:50:01.000Z,95387
2022-11-16T10:55:01.000Z,95382
2022-11-16T11:00:01.000Z,95378
2022-11-16T11:05:01.000Z,95381
2022-11-16T11:10:01.000Z,95369
2022-11-16T11:15:01.000Z,95356
2022-11-16T11:20:01.000Z,95352
2022-11-16T11:25:01.000Z,95350
2022-11-16T11:30:01.000Z,95348
2022-11-16T11:35:01.000Z,95350
2022-11-16T11:40:01.000Z,95345
2022-11-16T11:45:01.000Z,95335
2022-11-16T11:50:01.000Z,95337
2022-11-16T11:55:01.000Z,95344
2022-11-16T12:00:01.000Z,95330
2022-11-16T12:05:01.000Z,95332
2022-11-16T12:10:01.000Z,95324
2022-11-16T12:15:01.000Z,95317
2022-11-16T12:20:01.000Z,95315
2022-11-16T12:25:01.000Z,95304
2022-11-16T12:30:01.000Z,95292
2022-11-16T12:35:01.000Z,95278
2022-11-16T12:40:01.000Z,95284
2022-11-16T12:45:01.000Z,95271
2022-11-16T12:50:01.000Z,95265
2022-11-16T12:55:01.000Z,95272
2022-11-16T13:00:01.000Z,95262
2022-11-16T13:05:01.000Z,95254
2022-11-16T13:10:01.000Z,95243
2022-11-16T13:15:01.000Z,95236
2022-11-16T13:20:01.000Z,95226
2022-11-16T13:25:01.000Z,95236
2022-11-16T13:30:01.000Z,95217
2022-11-16T13:35:01.000Z,95204
2022-11-16T13:40:01.000Z,95204
2022-11-16T13:45:01.000Z,95195
2022-11-16T13:50:01.000Z,95205
2022-11-16T13:55:01.000Z,95196
2022-11-16T14:00:01.000Z,95184
2022-11-16T14:05:01.000Z,95174
2022-11-16T14:10:01.000Z,95180
2022-11-16T14:15:01.000Z,95182
2022-11-16T14:20:01.000Z,95187
2022-11-16T14:25:01.000Z,95186
2022-11-16T14:30:01.000Z,95185
2022-11-16T14:35:01.000Z,95169
2022-11-16T14:40:01.000Z,95169
2022-11-16T14:45:01.000Z,95163
2022-11-16T14:50:02.000Z,95139
2022-11-16T14:55:02.000Z,95154
2022-11-16T15:00:02.000Z,95149
2022-11-16T15:05:02.000Z,95149
2022-11-16T15:10:02.000Z,95154
2022-11-16T15:15:02.000Z,95158
2022-11-16T15:20:02.000Z,95157
2022-11-16T15:25:02.000Z,95146
2022-11-16T15:30:02.000Z,95150
2022-11-16T15:35:02.000Z,95156
2022-11-16T15:40:02.000Z,95140
2022-11-16T15:45:02.000Z,95133
2022-11-16T15:50:02.000Z,95126
2022-11-16T15:55:02.000Z,95127
2022-11-16T16:00:02.000Z,95129
2022-11-16T16:05:02.000Z,95120
2022-11-16T16:10:02.000Z,95133
2022-11-16T16:15:02.000Z,95111
2022-11-16T16:20:02.000Z,95124
2022-11-16T16:25:02.000Z,95112
2022-11-16T16:30:02.000Z,95106
2022-11-16T16:35:02.000Z,95116
2022-11-16T16:40:02.000Z,95106
2022-11-16T16:45:02.000Z,95110
2022-11-16T16:50:02.000Z,95100
2022-11-16T16:55:02.000Z,95119
2022-11-16T17:00:02.000Z,95112
2022-11-16T17:05:02.000Z,95106
2022-11-16T17:10:02.000Z,95109
2022-11-16T17:15:02.000Z,95115
2022-11-16T17:20:02.000Z,95120
2022-11-16T17:25:02.000Z,95111
2022-11-16T17:30:02.000Z,95114
2022-11-16T17:35:02.000Z,95089
2022-11-16T17:40:02.000Z,95077
2022-11-16T17:45:02.000Z,95061
2022-11-16T17:50:02.000Z,95060
2022-11-16T17:55:02.000Z,95053
2022-11-16T18:00:02.000Z,95043
2022-11-16T18:05:02.000Z,95035
2022-11-16T18:10:02.000Z,95031
2022-11-16T18:15:02.000Z,95017
2022-11-16T18:20:02.000Z,95018
2022-11-16T18:25:02.000Z,95012
2022-11-16T18:30:02.000Z,94982
2022-11-16T18:35:02.000Z,94992
2022-11-16T18:40:02.000Z,94985
2022-11-16T18:45:02.000Z,94972
2022-11-16T18:50:02.000Z,94971
2022-11-16T18:55:02.000Z,94975
2022-11-16T19:00:02.000Z,94998
2022-11-16T19:05:02.000Z,95000
2022-11-16T19:10:02.000Z,94980
2022-11-16T19:15:02.000Z,94977
2022-11-16T19:20:02.000Z,94963
2022-11-16T19:25:00.000Z,94938
2022-11-16T19:30:00.000Z,94931
2022-11-16T19:35:00.000Z,94931
2022-11-16T19:40:00.000Z,94915
2022-11-16T19:45:00.000Z,94931
2022-11-16T19:50:00.000Z,94936
2022-11-16T19:55:00.000Z,94927
2022-11-16T20:00:00.000Z,94922
2022-11-16T20:05:00.000Z,94931
2022-11-16T20:10:00.000Z,94919
2022-11-16T20:15:00.000Z,94933
2022-11-16T20:20:00.000Z,94927
2022-11-16T20:25:00.000Z,94906
2022-11-16T20:30:00.000Z,94910
2022-11-16T20:35:00.000Z,94907
2022-11-16T20:40:00.000Z,94901
2022-11-16T20:45:00.000Z,94921
2022-11-16T20:50:00.000Z,94936
2022-11-16T20:55:00.000Z,94927
2022-11-16T21:00:00.000Z,94934
2022-11-16T21:05:00.000Z,94940
2022-11-16T21:10:00.000Z,94950
2022-11-16T21:15:00.000Z,94953
2022-11-16T21:20:00.000Z,94950
2022-11-16T21:25:00.000Z,94961
2022-11-16T21:30:00.000Z,94964
2022-11-16T21:35:00.000Z,94969
2022-11-16T21:40:00.000Z,94977
2022-11-16T21:45:00.000Z,94956
2022-11-16T21:50:00.000Z,94914
2022-11-16T21:55:00.000Z,94942
2022-11-16T22:00:00.000Z,94936
2022-11-16T22:05:00.000Z,94922
2022-11-16T22:10:00.000Z,94929
2022-11-16T22:15:00.000Z,94924
2022-11-16T22:20:00.000Z,94930
2022-11-16T22:25:00.000Z,94928
2022-11-16T22:30:00.000Z,94917
2022-11-16T22:35:00.000Z,94914
2022-11-16T22:40:00.000Z,94929
2022-11-16T22:45:00.000Z,94914
2022-11-16T22:50:00.000Z,94929
2022-11-16T22:55:00.000Z,94924
2022-11-16T23:00:00.000Z,94905
2022-11-16T23:05:00.000Z,94886
2022-11-16T23:10:00.000Z,94895
2022-11-16T23:15:00.000Z,94882
2022-11-16T23:20:00.000Z,94883
2022-11-16T23:25:00.000Z,94886
2022-11-16T23:30:00.000Z,94875
2022-11-16T23:35:00.000Z,94868
2022-11-16T23:40:00.000Z,94898
2022-11-16T23:45:00.000Z,94884
2022-11-16T23:50:00.000Z,94884
2022-11-16T23:55:00.000Z,94889
